sensor_id;sensor_type;location;lat;lon;timestamp;temperature;humidity
1716;DHT22;855;48.824;9.220;2023-05-14T00:00:24;15.00;93.30
1716;DHT22;855;48.824;9.220;2023-05-14T00:02:51;15.00;93.30
1716;DHT22;855;48.824;9.220;2023-05-14T00:05:18;15.00;93.20
1716;DHT22;855;48.824;9.220;2023-05-14T00:07:45;15.00;93.30
1716;DHT22;855;48.824;9.220;2023-05-14T00:10:13;14.90;93.50
1716;DHT22;855;48.824;9.220;2023-05-14T00:12:41;14.90;93.60
1716;DHT22;855;48.824;9.220;2023-05-14T00:15:09;14.90;93.40
1716;DHT22;855;48.824;9.220;2023-05-14T00:17:36;14.80;93.40
1716;DHT22;855;48.824;9.220;2023-05-14T00:20:04;14.50;93.60
1716;DHT22;855;48.824;9.220;2023-05-14T00:22:31;14.40;94.00
1716;DHT22;855;48.824;9.220;2023-05-14T00:24:58;14.30;94.30
1716;DHT22;855;48.824;9.220;2023-05-14T00:27:25;14.30;94.50
1716;DHT22;855;48.824;9.220;2023-05-14T00:29:53;14.20;94.70
1716;DHT22;855;48.824;9.220;2023-05-14T00:32:20;14.30;94.70
1716;DHT22;855;48.824;9.220;2023-05-14T00:34:47;14.40;94.30
1716;DHT22;855;48.824;9.220;2023-05-14T00:37:14;14.40;94.10
1716;DHT22;855;48.824;9.220;2023-05-14T00:39:41;14.30;94.10
1716;DHT22;855;48.824;9.220;2023-05-14T00:42:08;14.30;94.20
1716;DHT22;855;48.824;9.220;2023-05-14T00:44:35;14.20;94.30
1716;DHT22;855;48.824;9.220;2023-05-14T00:47:04;14.20;94.50
1716;DHT22;855;48.824;9.220;2023-05-14T00:49:31;14.30;94.40
1716;DHT22;855;48.824;9.220;2023-05-14T00:51:59;14.30;94.10
1716;DHT22;855;48.824;9.220;2023-05-14T00:54:26;14.30;94.20
1716;DHT22;855;48.824;9.220;2023-05-14T00:56:54;14.30;94.10
1716;DHT22;855;48.824;9.220;2023-05-14T00:59:21;14.30;94.10
1716;DHT22;855;48.824;9.220;2023-05-14T01:01:48;14.20;94.20
1716;DHT22;855;48.824;9.220;2023-05-14T01:04:16;14.10;94.30
1716;DHT22;855;48.824;9.220;2023-05-14T01:06:52;13.90;94.80
1716;DHT22;855;48.824;9.220;2023-05-14T01:09:24;13.90;95.10
1716;DHT22;855;48.824;9.220;2023-05-14T01:12:02;13.90;95.00
1716;DHT22;855;48.824;9.220;2023-05-14T01:14:35;13.70;95.20
1716;DHT22;855;48.824;9.220;2023-05-14T01:17:04;13.80;95.20
1716;DHT22;855;48.824;9.220;2023-05-14T01:19:38;13.80;95.10
1716;DHT22;855;48.824;9.220;2023-05-14T01:22:06;13.90;94.90
1716;DHT22;855;48.824;9.220;2023-05-14T01:24:33;13.90;94.60
1716;DHT22;855;48.824;9.220;2023-05-14T01:29:48;13.80;94.20
1716;DHT22;855;48.824;9.220;2023-05-14T01:32:19;13.70;94.30
1716;DHT22;855;48.824;9.220;2023-05-14T01:34:50;13.50;94.50
1716;DHT22;855;48.824;9.220;2023-05-14T01:37:19;13.30;95.10
1716;DHT22;855;48.824;9.220;2023-05-14T01:39:46;13.30;95.50
1716;DHT22;855;48.824;9.220;2023-05-14T01:42:14;13.30;95.40
1716;DHT22;855;48.824;9.220;2023-05-14T01:44:41;13.30;95.50
1716;DHT22;855;48.824;9.220;2023-05-14T01:47:08;13.30;95.60
1716;DHT22;855;48.824;9.220;2023-05-14T01:49:35;13.30;95.50
1716;DHT22;855;48.824;9.220;2023-05-14T01:52:02;13.30;95.40
1716;DHT22;855;48.824;9.220;2023-05-14T01:54:30;13.20;95.40
1716;DHT22;855;48.824;9.220;2023-05-14T01:56:57;13.10;95.60
1716;DHT22;855;48.824;9.220;2023-05-14T01:59:24;13.20;95.60
1716;DHT22;855;48.824;9.220;2023-05-14T02:01:50;13.20;95.40
1716;DHT22;855;48.824;9.220;2023-05-14T02:04:17;13.20;95.20
1716;DHT22;855;48.824;9.220;2023-05-14T02:06:45;13.30;95.10
1716;DHT22;855;48.824;9.220;2023-05-14T02:09:12;13.30;94.90
1716;DHT22;855;48.824;9.220;2023-05-14T02:11:40;13.20;94.70
1716;DHT22;855;48.824;9.220;2023-05-14T02:14:07;13.10;94.80
1716;DHT22;855;48.824;9.220;2023-05-14T02:16:33;13.00;94.70
1716;DHT22;855;48.824;9.220;2023-05-14T02:19:00;13.00;95.00
1716;DHT22;855;48.824;9.220;2023-05-14T02:21:27;13.00;95.10
1716;DHT22;855;48.824;9.220;2023-05-14T02:23:54;12.90;95.00
1716;DHT22;855;48.824;9.220;2023-05-14T02:26:20;12.90;95.10
1716;DHT22;855;48.824;9.220;2023-05-14T02:28:49;12.80;95.30
1716;DHT22;855;48.824;9.220;2023-05-14T02:31:15;12.80;95.20
1716;DHT22;855;48.824;9.220;2023-05-14T02:33:43;12.80;95.20
1716;DHT22;855;48.824;9.220;2023-05-14T02:36:10;12.80;95.20
1716;DHT22;855;48.824;9.220;2023-05-14T02:38:37;12.80;95.20
1716;DHT22;855;48.824;9.220;2023-05-14T02:41:04;12.80;95.20
1716;DHT22;855;48.824;9.220;2023-05-14T02:43:31;12.70;95.40
1716;DHT22;855;48.824;9.220;2023-05-14T02:45:59;12.60;95.60
1716;DHT22;855;48.824;9.220;2023-05-14T02:48:26;12.50;95.90
1716;DHT22;855;48.824;9.220;2023-05-14T02:50:53;12.50;96.10
1716;DHT22;855;48.824;9.220;2023-05-14T02:53:20;12.50;96.50
1716;DHT22;855;48.824;9.220;2023-05-14T02:55:47;12.60;96.50
1716;DHT22;855;48.824;9.220;2023-05-14T02:58:13;12.50;96.30
1716;DHT22;855;48.824;9.220;2023-05-14T03:00:40;12.60;96.40
1716;DHT22;855;48.824;9.220;2023-05-14T03:03:08;12.60;96.10
1716;DHT22;855;48.824;9.220;2023-05-14T03:05:35;12.50;96.30
1716;DHT22;855;48.824;9.220;2023-05-14T03:08:02;12.50;96.50
1716;DHT22;855;48.824;9.220;2023-05-14T03:10:29;12.40;96.60
1716;DHT22;855;48.824;9.220;2023-05-14T03:12:57;12.30;96.50
1716;DHT22;855;48.824;9.220;2023-05-14T03:15:24;12.40;96.70
1716;DHT22;855;48.824;9.220;2023-05-14T03:17:51;12.40;96.60
1716;DHT22;855;48.824;9.220;2023-05-14T03:20:19;12.30;96.30
1716;DHT22;855;48.824;9.220;2023-05-14T03:22:46;12.20;96.30
1716;DHT22;855;48.824;9.220;2023-05-14T03:25:13;12.10;96.40
1716;DHT22;855;48.824;9.220;2023-05-14T03:27:39;12.10;96.50
1716;DHT22;855;48.824;9.220;2023-05-14T03:30:07;12.10;96.60
1716;DHT22;855;48.824;9.220;2023-05-14T03:32:35;12.00;96.80
1716;DHT22;855;48.824;9.220;2023-05-14T03:35:03;12.20;97.10
1716;DHT22;855;48.824;9.220;2023-05-14T03:37:31;12.20;96.60
1716;DHT22;855;48.824;9.220;2023-05-14T03:39:58;12.20;96.60
1716;DHT22;855;48.824;9.220;2023-05-14T03:42:25;12.20;96.50
1716;DHT22;855;48.824;9.220;2023-05-14T03:44:51;12.30;96.40
1716;DHT22;855;48.824;9.220;2023-05-14T03:47:18;12.30;96.20
1716;DHT22;855;48.824;9.220;2023-05-14T03:49:45;12.20;96.40
1716;DHT22;855;48.824;9.220;2023-05-14T03:52:12;12.10;96.50
1716;DHT22;855;48.824;9.220;2023-05-14T03:54:40;12.10;96.50
1716;DHT22;855;48.824;9.220;2023-05-14T03:57:07;12.10;96.40
1716;DHT22;855;48.824;9.220;2023-05-14T03:59:34;12.10;96.20
1716;DHT22;855;48.824;9.220;2023-05-14T04:02:01;12.20;96.10
1716;DHT22;855;48.824;9.220;2023-05-14T04:04:27;12.30;96.20
1716;DHT22;855;48.824;9.220;2023-05-14T04:06:54;12.20;95.90
1716;DHT22;855;48.824;9.220;2023-05-14T04:09:21;12.30;95.90
1716;DHT22;855;48.824;9.220;2023-05-14T04:11:49;12.50;95.50
1716;DHT22;855;48.824;9.220;2023-05-14T04:14:16;12.50;95.20
1716;DHT22;855;48.824;9.220;2023-05-14T04:16:43;12.40;95.10
1716;DHT22;855;48.824;9.220;2023-05-14T04:19:10;12.40;95.00
1716;DHT22;855;48.824;9.220;2023-05-14T04:21:36;12.40;95.00
1716;DHT22;855;48.824;9.220;2023-05-14T04:24:04;12.50;94.80
1716;DHT22;855;48.824;9.220;2023-05-14T04:26:31;12.50;94.80
1716;DHT22;855;48.824;9.220;2023-05-14T04:28:59;12.50;94.60
1716;DHT22;855;48.824;9.220;2023-05-14T04:31:27;12.50;94.60
1716;DHT22;855;48.824;9.220;2023-05-14T04:33:54;12.50;94.60
1716;DHT22;855;48.824;9.220;2023-05-14T04:36:21;12.60;94.40
1716;DHT22;855;48.824;9.220;2023-05-14T04:38:47;12.60;94.40
1716;DHT22;855;48.824;9.220;2023-05-14T04:41:15;12.70;94.30
1716;DHT22;855;48.824;9.220;2023-05-14T04:43:41;12.70;94.30
1716;DHT22;855;48.824;9.220;2023-05-14T04:46:10;12.70;94.10
1716;DHT22;855;48.824;9.220;2023-05-14T04:48:36;12.70;94.20
1716;DHT22;855;48.824;9.220;2023-05-14T04:51:03;12.80;94.30
1716;DHT22;855;48.824;9.220;2023-05-14T04:53:30;12.80;94.20
1716;DHT22;855;48.824;9.220;2023-05-14T04:55:57;12.80;94.10
1716;DHT22;855;48.824;9.220;2023-05-14T04:58:24;12.60;94.00
1716;DHT22;855;48.824;9.220;2023-05-14T05:00:53;12.60;93.90
1716;DHT22;855;48.824;9.220;2023-05-14T05:03:21;12.60;93.90
1716;DHT22;855;48.824;9.220;2023-05-14T05:05:48;12.60;93.90
1716;DHT22;855;48.824;9.220;2023-05-14T05:08:15;12.60;94.20
1716;DHT22;855;48.824;9.220;2023-05-14T05:10:42;12.80;94.40
1716;DHT22;855;48.824;9.220;2023-05-14T05:13:08;12.90;94.20
1716;DHT22;855;48.824;9.220;2023-05-14T05:15:35;13.10;94.00
1716;DHT22;855;48.824;9.220;2023-05-14T05:18:02;13.20;93.80
1716;DHT22;855;48.824;9.220;2023-05-14T05:20:30;13.30;93.60
1716;DHT22;855;48.824;9.220;2023-05-14T05:22:57;13.30;93.30
1716;DHT22;855;48.824;9.220;2023-05-14T05:25:25;13.30;93.10
1716;DHT22;855;48.824;9.220;2023-05-14T05:27:52;13.40;93.00
1716;DHT22;855;48.824;9.220;2023-05-14T05:30:19;13.30;93.00
1716;DHT22;855;48.824;9.220;2023-05-14T05:32:45;13.20;93.30
1716;DHT22;855;48.824;9.220;2023-05-14T05:35:12;13.10;93.50
1716;DHT22;855;48.824;9.220;2023-05-14T05:37:41;13.20;93.80
1716;DHT22;855;48.824;9.220;2023-05-14T05:40:10;13.20;93.80
1716;DHT22;855;48.824;9.220;2023-05-14T05:42:38;13.10;93.80
1716;DHT22;855;48.824;9.220;2023-05-14T05:45:06;13.10;94.10
1716;DHT22;855;48.824;9.220;2023-05-14T05:47:33;13.00;94.10
1716;DHT22;855;48.824;9.220;2023-05-14T05:50:00;13.00;94.20
1716;DHT22;855;48.824;9.220;2023-05-14T05:52:27;12.90;94.10
1716;DHT22;855;48.824;9.220;2023-05-14T05:54:55;12.90;94.20
1716;DHT22;855;48.824;9.220;2023-05-14T05:57:22;12.90;94.40
1716;DHT22;855;48.824;9.220;2023-05-14T05:59:51;12.90;94.40
1716;DHT22;855;48.824;9.220;2023-05-14T06:02:18;12.80;94.60
1716;DHT22;855;48.824;9.220;2023-05-14T06:04:45;12.80;94.70
1716;DHT22;855;48.824;9.220;2023-05-14T06:07:12;12.90;94.60
1716;DHT22;855;48.824;9.220;2023-05-14T06:09:41;12.90;94.40
1716;DHT22;855;48.824;9.220;2023-05-14T06:12:09;13.00;94.40
1716;DHT22;855;48.824;9.220;2023-05-14T06:14:36;13.10;94.40
1716;DHT22;855;48.824;9.220;2023-05-14T06:17:03;13.20;94.00
1716;DHT22;855;48.824;9.220;2023-05-14T06:19:30;13.40;93.70
1716;DHT22;855;48.824;9.220;2023-05-14T06:21:57;13.50;93.50
1716;DHT22;855;48.824;9.220;2023-05-14T06:24:24;13.50;93.30
1716;DHT22;855;48.824;9.220;2023-05-14T06:26:51;13.50;92.80
1716;DHT22;855;48.824;9.220;2023-05-14T06:29:19;13.60;92.90
1716;DHT22;855;48.824;9.220;2023-05-14T06:31:46;13.80;92.70
1716;DHT22;855;48.824;9.220;2023-05-14T06:34:13;13.90;91.80
1716;DHT22;855;48.824;9.220;2023-05-14T06:36:39;13.90;91.10
1716;DHT22;855;48.824;9.220;2023-05-14T06:39:06;13.90;91.00
1716;DHT22;855;48.824;9.220;2023-05-14T06:41:33;14.00;91.00
1716;DHT22;855;48.824;9.220;2023-05-14T06:44:00;14.10;90.80
1716;DHT22;855;48.824;9.220;2023-05-14T06:46:28;14.20;90.10
1716;DHT22;855;48.824;9.220;2023-05-14T06:48:55;14.30;90.10
1716;DHT22;855;48.824;9.220;2023-05-14T06:51:22;14.40;89.70
1716;DHT22;855;48.824;9.220;2023-05-14T06:53:49;14.40;89.10
1716;DHT22;855;48.824;9.220;2023-05-14T06:56:17;14.30;89.70
1716;DHT22;855;48.824;9.220;2023-05-14T06:58:44;14.30;90.10
1716;DHT22;855;48.824;9.220;2023-05-14T07:01:10;14.40;89.80
1716;DHT22;855;48.824;9.220;2023-05-14T07:03:39;14.40;89.80
1716;DHT22;855;48.824;9.220;2023-05-14T07:06:06;14.50;89.10
1716;DHT22;855;48.824;9.220;2023-05-14T07:08:32;14.50;89.10
1716;DHT22;855;48.824;9.220;2023-05-14T07:10:59;14.50;89.40
1716;DHT22;855;48.824;9.220;2023-05-14T07:13:26;14.60;88.20
1716;DHT22;855;48.824;9.220;2023-05-14T07:15:53;14.70;88.20
1716;DHT22;855;48.824;9.220;2023-05-14T07:18:21;14.70;87.70
1716;DHT22;855;48.824;9.220;2023-05-14T07:20:50;14.90;87.80
1716;DHT22;855;48.824;9.220;2023-05-14T07:23:16;15.00;87.70
1716;DHT22;855;48.824;9.220;2023-05-14T07:25:43;15.20;87.00
1716;DHT22;855;48.824;9.220;2023-05-14T07:28:10;15.10;85.80
1716;DHT22;855;48.824;9.220;2023-05-14T07:30:37;15.00;86.10
1716;DHT22;855;48.824;9.220;2023-05-14T07:33:04;15.10;86.20
1716;DHT22;855;48.824;9.220;2023-05-14T07:35:30;15.30;86.00
1716;DHT22;855;48.824;9.220;2023-05-14T07:37:59;15.40;85.30
1716;DHT22;855;48.824;9.220;2023-05-14T07:40:26;15.60;85.30
1716;DHT22;855;48.824;9.220;2023-05-14T07:42:52;15.70;84.40
1716;DHT22;855;48.824;9.220;2023-05-14T07:45:19;15.90;84.50
1716;DHT22;855;48.824;9.220;2023-05-14T07:47:46;16.10;83.70
1716;DHT22;855;48.824;9.220;2023-05-14T07:50:16;16.20;83.80
1716;DHT22;855;48.824;9.220;2023-05-14T07:52:43;16.30;82.40
1716;DHT22;855;48.824;9.220;2023-05-14T07:55:11;16.20;81.70
1716;DHT22;855;48.824;9.220;2023-05-14T07:57:38;16.40;81.70
1716;DHT22;855;48.824;9.220;2023-05-14T08:00:06;16.50;81.60
1716;DHT22;855;48.824;9.220;2023-05-14T08:02:33;16.80;80.80
1716;DHT22;855;48.824;9.220;2023-05-14T08:05:00;17.00;79.50
1716;DHT22;855;48.824;9.220;2023-05-14T08:07:28;17.30;78.70
1716;DHT22;855;48.824;9.220;2023-05-14T08:09:55;17.60;77.00
1716;DHT22;855;48.824;9.220;2023-05-14T08:12:24;17.70;76.00
1716;DHT22;855;48.824;9.220;2023-05-14T08:14:51;17.90;75.40
1716;DHT22;855;48.824;9.220;2023-05-14T08:17:18;17.90;74.90
1716;DHT22;855;48.824;9.220;2023-05-14T08:19:45;17.90;75.40
1716;DHT22;855;48.824;9.220;2023-05-14T08:22:12;17.80;75.30
1716;DHT22;855;48.824;9.220;2023-05-14T08:24:39;17.90;75.30
1716;DHT22;855;48.824;9.220;2023-05-14T08:27:07;17.70;75.90
1716;DHT22;855;48.824;9.220;2023-05-14T08:29:35;17.70;75.80
1716;DHT22;855;48.824;9.220;2023-05-14T08:32:02;17.60;75.80
1716;DHT22;855;48.824;9.220;2023-05-14T08:34:29;17.60;75.80
1716;DHT22;855;48.824;9.220;2023-05-14T08:36:56;17.60;75.90
1716;DHT22;855;48.824;9.220;2023-05-14T08:39:24;17.80;75.90
1716;DHT22;855;48.824;9.220;2023-05-14T08:41:51;17.90;75.50
1716;DHT22;855;48.824;9.220;2023-05-14T08:44:18;18.20;76.00
1716;DHT22;855;48.824;9.220;2023-05-14T08:46:48;18.30;74.30
1716;DHT22;855;48.824;9.220;2023-05-14T08:49:28;18.40;73.40
1716;DHT22;855;48.824;9.220;2023-05-14T08:51:57;18.40;74.70
1716;DHT22;855;48.824;9.220;2023-05-14T08:54:25;18.50;72.90
1716;DHT22;855;48.824;9.220;2023-05-14T08:56:53;18.60;71.80
1716;DHT22;855;48.824;9.220;2023-05-14T08:59:20;18.70;72.50
1716;DHT22;855;48.824;9.220;2023-05-14T09:01:52;18.50;72.10
1716;DHT22;855;48.824;9.220;2023-05-14T09:04:20;18.70;72.50
1716;DHT22;855;48.824;9.220;2023-05-14T09:06:49;18.70;72.90
1716;DHT22;855;48.824;9.220;2023-05-14T09:09:16;18.80;71.30
1716;DHT22;855;48.824;9.220;2023-05-14T09:11:45;18.90;71.20
1716;DHT22;855;48.824;9.220;2023-05-14T09:14:12;18.80;71.20
1716;DHT22;855;48.824;9.220;2023-05-14T09:16:39;18.60;72.90
1716;DHT22;855;48.824;9.220;2023-05-14T09:19:11;18.60;72.90
1716;DHT22;855;48.824;9.220;2023-05-14T09:21:39;18.90;71.90
1716;DHT22;855;48.824;9.220;2023-05-14T09:24:06;19.10;71.80
1716;DHT22;855;48.824;9.220;2023-05-14T09:26:34;19.30;70.90
1716;DHT22;855;48.824;9.220;2023-05-14T09:29:01;19.40;71.20
1716;DHT22;855;48.824;9.220;2023-05-14T09:31:29;19.50;69.40
1716;DHT22;855;48.824;9.220;2023-05-14T09:33:56;19.70;68.60
1716;DHT22;855;48.824;9.220;2023-05-14T09:36:25;19.90;68.00
1716;DHT22;855;48.824;9.220;2023-05-14T09:38:52;19.90;68.40
1716;DHT22;855;48.824;9.220;2023-05-14T09:41:19;19.90;67.70
1716;DHT22;855;48.824;9.220;2023-05-14T09:43:47;19.90;67.50
1716;DHT22;855;48.824;9.220;2023-05-14T09:46:14;20.00;66.70
1716;DHT22;855;48.824;9.220;2023-05-14T09:48:41;19.50;66.90
1716;DHT22;855;48.824;9.220;2023-05-14T09:51:09;19.50;67.50
1716;DHT22;855;48.824;9.220;2023-05-14T09:53:37;19.60;68.00
1716;DHT22;855;48.824;9.220;2023-05-14T09:56:05;19.20;67.60
1716;DHT22;855;48.824;9.220;2023-05-14T09:58:32;19.30;68.20
1716;DHT22;855;48.824;9.220;2023-05-14T10:01:00;19.40;67.50
1716;DHT22;855;48.824;9.220;2023-05-14T10:03:28;19.50;66.40
1716;DHT22;855;48.824;9.220;2023-05-14T10:05:57;19.70;66.70
1716;DHT22;855;48.824;9.220;2023-05-14T10:08:32;19.90;65.50
1716;DHT22;855;48.824;9.220;2023-05-14T10:11:04;20.00;65.10
1716;DHT22;855;48.824;9.220;2023-05-14T10:13:38;20.10;65.70
1716;DHT22;855;48.824;9.220;2023-05-14T10:16:12;20.30;64.30
1716;DHT22;855;48.824;9.220;2023-05-14T10:18:43;20.10;64.50
1716;DHT22;855;48.824;9.220;2023-05-14T10:21:19;20.10;65.30
1716;DHT22;855;48.824;9.220;2023-05-14T10:23:47;20.40;64.30
1716;DHT22;855;48.824;9.220;2023-05-14T10:26:16;20.30;63.60
1716;DHT22;855;48.824;9.220;2023-05-14T10:28:43;20.30;64.20
1716;DHT22;855;48.824;9.220;2023-05-14T10:31:10;20.00;64.40
1716;DHT22;855;48.824;9.220;2023-05-14T10:33:45;19.90;65.20
1716;DHT22;855;48.824;9.220;2023-05-14T10:36:15;19.90;65.10
1716;DHT22;855;48.824;9.220;2023-05-14T10:38:43;20.10;64.70
1716;DHT22;855;48.824;9.220;2023-05-14T10:41:10;20.30;64.40
1716;DHT22;855;48.824;9.220;2023-05-14T10:43:41;20.20;64.40
1716;DHT22;855;48.824;9.220;2023-05-14T10:46:09;19.80;67.30
1716;DHT22;855;48.824;9.220;2023-05-14T10:48:37;19.60;68.10
1716;DHT22;855;48.824;9.220;2023-05-14T10:51:06;19.50;69.60
1716;DHT22;855;48.824;9.220;2023-05-14T10:53:35;19.30;69.70
1716;DHT22;855;48.824;9.220;2023-05-14T10:56:05;19.30;69.40
1716;DHT22;855;48.824;9.220;2023-05-14T10:58:34;19.10;70.20
1716;DHT22;855;48.824;9.220;2023-05-14T11:01:04;19.30;69.80
1716;DHT22;855;48.824;9.220;2023-05-14T11:03:38;19.50;68.90
1716;DHT22;855;48.824;9.220;2023-05-14T11:06:06;19.80;68.50
1716;DHT22;855;48.824;9.220;2023-05-14T11:08:33;20.00;66.50
1716;DHT22;855;48.824;9.220;2023-05-14T11:11:00;20.10;66.30
1716;DHT22;855;48.824;9.220;2023-05-14T11:13:27;20.20;66.10
1716;DHT22;855;48.824;9.220;2023-05-14T11:15:55;20.30;66.40
1716;DHT22;855;48.824;9.220;2023-05-14T11:18:27;20.30;65.50
1716;DHT22;855;48.824;9.220;2023-05-14T11:20:57;20.60;65.10
1716;DHT22;855;48.824;9.220;2023-05-14T11:23:24;20.70;62.70
1716;DHT22;855;48.824;9.220;2023-05-14T11:25:52;20.50;63.00
1716;DHT22;855;48.824;9.220;2023-05-14T11:28:19;20.70;63.20
1716;DHT22;855;48.824;9.220;2023-05-14T11:30:47;20.30;65.30
1716;DHT22;855;48.824;9.220;2023-05-14T11:33:14;20.00;64.50
1716;DHT22;855;48.824;9.220;2023-05-14T11:35:43;19.70;66.80
1716;DHT22;855;48.824;9.220;2023-05-14T11:38:14;19.90;66.50
1716;DHT22;855;48.824;9.220;2023-05-14T11:40:42;20.00;66.30
1716;DHT22;855;48.824;9.220;2023-05-14T11:43:09;20.10;65.70
1716;DHT22;855;48.824;9.220;2023-05-14T11:45:36;19.90;65.90
1716;DHT22;855;48.824;9.220;2023-05-14T11:48:11;20.00;66.40
1716;DHT22;855;48.824;9.220;2023-05-14T11:50:39;19.80;66.30
1716;DHT22;855;48.824;9.220;2023-05-14T11:53:07;19.80;66.00
1716;DHT22;855;48.824;9.220;2023-05-14T11:55:34;19.80;65.50
1716;DHT22;855;48.824;9.220;2023-05-14T11:58:01;19.90;67.60
1716;DHT22;855;48.824;9.220;2023-05-14T12:00:28;19.90;68.20
1716;DHT22;855;48.824;9.220;2023-05-14T12:02:55;19.90;68.60
1716;DHT22;855;48.824;9.220;2023-05-14T12:05:22;19.80;71.40
1716;DHT22;855;48.824;9.220;2023-05-14T12:07:49;19.20;67.50
1716;DHT22;855;48.824;9.220;2023-05-14T12:10:17;19.00;70.90
1716;DHT22;855;48.824;9.220;2023-05-14T12:12:46;19.30;70.50
1716;DHT22;855;48.824;9.220;2023-05-14T12:15:14;19.30;70.90
1716;DHT22;855;48.824;9.220;2023-05-14T12:17:41;19.20;70.40
1716;DHT22;855;48.824;9.220;2023-05-14T12:20:09;19.50;69.80
1716;DHT22;855;48.824;9.220;2023-05-14T12:22:37;19.30;68.80
1716;DHT22;855;48.824;9.220;2023-05-14T12:25:10;19.20;70.40
1716;DHT22;855;48.824;9.220;2023-05-14T12:27:39;19.70;69.00
1716;DHT22;855;48.824;9.220;2023-05-14T12:30:06;20.20;66.50
1716;DHT22;855;48.824;9.220;2023-05-14T12:32:34;20.30;64.90
1716;DHT22;855;48.824;9.220;2023-05-14T12:35:01;20.30;64.80
1716;DHT22;855;48.824;9.220;2023-05-14T12:37:28;20.10;64.90
1716;DHT22;855;48.824;9.220;2023-05-14T12:39:55;19.90;65.20
1716;DHT22;855;48.824;9.220;2023-05-14T12:42:22;20.00;65.10
1716;DHT22;855;48.824;9.220;2023-05-14T12:44:50;20.20;64.80
1716;DHT22;855;48.824;9.220;2023-05-14T12:47:17;20.20;64.70
1716;DHT22;855;48.824;9.220;2023-05-14T12:49:43;20.60;64.00
1716;DHT22;855;48.824;9.220;2023-05-14T12:52:10;20.90;61.90
1716;DHT22;855;48.824;9.220;2023-05-14T12:54:37;21.10;61.40
1716;DHT22;855;48.824;9.220;2023-05-14T12:57:05;21.30;61.50
1716;DHT22;855;48.824;9.220;2023-05-14T12:59:32;21.10;59.00
1716;DHT22;855;48.824;9.220;2023-05-14T13:02:00;20.90;59.20
1716;DHT22;855;48.824;9.220;2023-05-14T13:04:26;20.70;59.30
1716;DHT22;855;48.824;9.220;2023-05-14T13:06:53;19.80;60.80
1716;DHT22;855;48.824;9.220;2023-05-14T13:09:20;19.60;62.80
1716;DHT22;855;48.824;9.220;2023-05-14T13:11:47;19.70;64.20
1716;DHT22;855;48.824;9.220;2023-05-14T13:14:14;19.50;65.20
1716;DHT22;855;48.824;9.220;2023-05-14T13:16:41;19.50;68.20
1716;DHT22;855;48.824;9.220;2023-05-14T13:19:09;19.50;67.60
1716;DHT22;855;48.824;9.220;2023-05-14T13:21:36;19.30;67.30
1716;DHT22;855;48.824;9.220;2023-05-14T13:24:03;19.20;67.50
1716;DHT22;855;48.824;9.220;2023-05-14T13:26:30;19.10;66.70
1716;DHT22;855;48.824;9.220;2023-05-14T13:28:57;19.00;68.10
1716;DHT22;855;48.824;9.220;2023-05-14T13:31:23;19.10;67.90
1716;DHT22;855;48.824;9.220;2023-05-14T13:33:50;19.20;67.50
1716;DHT22;855;48.824;9.220;2023-05-14T13:36:18;19.30;67.20
1716;DHT22;855;48.824;9.220;2023-05-14T13:38:45;19.30;65.90
1716;DHT22;855;48.824;9.220;2023-05-14T13:41:12;19.30;65.70
1716;DHT22;855;48.824;9.220;2023-05-14T13:43:39;19.30;63.80
1716;DHT22;855;48.824;9.220;2023-05-14T13:46:06;19.30;64.40
1716;DHT22;855;48.824;9.220;2023-05-14T13:48:33;19.40;64.40
1716;DHT22;855;48.824;9.220;2023-05-14T13:51:00;19.30;64.50
1716;DHT22;855;48.824;9.220;2023-05-14T13:53:29;19.40;64.90
1716;DHT22;855;48.824;9.220;2023-05-14T13:55:56;19.50;65.10
1716;DHT22;855;48.824;9.220;2023-05-14T13:58:23;19.50;65.20
1716;DHT22;855;48.824;9.220;2023-05-14T14:00:51;19.50;65.70
1716;DHT22;855;48.824;9.220;2023-05-14T14:03:19;19.50;63.80
1716;DHT22;855;48.824;9.220;2023-05-14T14:05:46;19.50;65.10
1716;DHT22;855;48.824;9.220;2023-05-14T14:08:13;19.50;64.70
1716;DHT22;855;48.824;9.220;2023-05-14T14:10:41;19.60;64.50
1716;DHT22;855;48.824;9.220;2023-05-14T14:13:08;19.50;63.60
1716;DHT22;855;48.824;9.220;2023-05-14T14:15:35;19.50;63.80
1716;DHT22;855;48.824;9.220;2023-05-14T14:18:02;19.80;62.70
1716;DHT22;855;48.824;9.220;2023-05-14T14:20:30;19.90;59.90
1716;DHT22;855;48.824;9.220;2023-05-14T14:22:57;19.90;60.00
1716;DHT22;855;48.824;9.220;2023-05-14T14:25:24;20.00;61.20
1716;DHT22;855;48.824;9.220;2023-05-14T14:27:52;20.00;60.40
1716;DHT22;855;48.824;9.220;2023-05-14T14:30:19;20.00;60.70
1716;DHT22;855;48.824;9.220;2023-05-14T14:32:46;20.10;59.30
1716;DHT22;855;48.824;9.220;2023-05-14T14:35:14;20.10;60.30
1716;DHT22;855;48.824;9.220;2023-05-14T14:37:42;20.20;59.00
1716;DHT22;855;48.824;9.220;2023-05-14T14:40:13;20.50;58.40
1716;DHT22;855;48.824;9.220;2023-05-14T14:42:40;20.70;57.80
1716;DHT22;855;48.824;9.220;2023-05-14T14:45:09;20.70;58.90
1716;DHT22;855;48.824;9.220;2023-05-14T14:47:36;20.80;57.80
1716;DHT22;855;48.824;9.220;2023-05-14T14:50:04;20.80;58.80
1716;DHT22;855;48.824;9.220;2023-05-14T14:52:31;20.90;57.50
1716;DHT22;855;48.824;9.220;2023-05-14T14:54:58;21.00;56.00
1716;DHT22;855;48.824;9.220;2023-05-14T14:57:25;21.10;55.80
1716;DHT22;855;48.824;9.220;2023-05-14T14:59:52;21.10;55.70
1716;DHT22;855;48.824;9.220;2023-05-14T15:02:20;21.30;56.30
1716;DHT22;855;48.824;9.220;2023-05-14T15:04:47;21.20;57.40
1716;DHT22;855;48.824;9.220;2023-05-14T15:07:14;21.00;57.70
1716;DHT22;855;48.824;9.220;2023-05-14T15:09:43;20.70;58.20
1716;DHT22;855;48.824;9.220;2023-05-14T15:12:09;20.60;58.90
1716;DHT22;855;48.824;9.220;2023-05-14T15:14:37;20.40;60.20
1716;DHT22;855;48.824;9.220;2023-05-14T15:17:04;19.80;63.40
1716;DHT22;855;48.824;9.220;2023-05-14T15:19:32;19.50;66.40
1716;DHT22;855;48.824;9.220;2023-05-14T15:21:58;19.30;68.80
1716;DHT22;855;48.824;9.220;2023-05-14T15:24:25;19.00;72.30
1716;DHT22;855;48.824;9.220;2023-05-14T15:26:52;19.10;72.60
1716;DHT22;855;48.824;9.220;2023-05-14T15:29:19;19.00;72.70
1716;DHT22;855;48.824;9.220;2023-05-14T15:31:46;18.90;69.60
1716;DHT22;855;48.824;9.220;2023-05-14T15:34:12;18.90;71.90
1716;DHT22;855;48.824;9.220;2023-05-14T15:36:40;19.00;74.50
1716;DHT22;855;48.824;9.220;2023-05-14T15:39:07;19.10;75.50
1716;DHT22;855;48.824;9.220;2023-05-14T15:41:36;19.20;71.30
1716;DHT22;855;48.824;9.220;2023-05-14T15:44:03;18.90;71.60
1716;DHT22;855;48.824;9.220;2023-05-14T15:46:30;19.00;70.90
1716;DHT22;855;48.824;9.220;2023-05-14T15:48:57;19.00;71.60
1716;DHT22;855;48.824;9.220;2023-05-14T15:51:23;19.10;69.30
1716;DHT22;855;48.824;9.220;2023-05-14T15:53:53;19.20;69.20
1716;DHT22;855;48.824;9.220;2023-05-14T15:56:20;19.30;68.50
1716;DHT22;855;48.824;9.220;2023-05-14T15:58:47;19.50;67.30
1716;DHT22;855;48.824;9.220;2023-05-14T16:01:14;19.30;66.10
1716;DHT22;855;48.824;9.220;2023-05-14T16:03:41;19.10;67.50
1716;DHT22;855;48.824;9.220;2023-05-14T16:06:07;19.10;65.50
1716;DHT22;855;48.824;9.220;2023-05-14T16:08:35;19.10;68.40
1716;DHT22;855;48.824;9.220;2023-05-14T16:11:04;19.20;67.90
1716;DHT22;855;48.824;9.220;2023-05-14T16:13:32;19.20;64.30
1716;DHT22;855;48.824;9.220;2023-05-14T16:16:00;19.10;67.10
1716;DHT22;855;48.824;9.220;2023-05-14T16:18:27;19.10;65.30
1716;DHT22;855;48.824;9.220;2023-05-14T16:20:54;19.20;66.80